createdAt,value
2022-10-28T00:01:24.493Z,84.65
2022-10-28T00:03:56.173Z,84.65
2022-10-28T00:06:28.375Z,84.62
2022-10-28T00:08:56.151Z,84.72
2022-10-28T00:11:28.335Z,84.73
2022-10-28T00:13:58.133Z,84.87
2022-10-28T00:16:29.961Z,84.97
2022-10-28T00:19:02.652Z,84.99
2022-10-28T00:21:34.606Z,85.03
2022-10-28T00:24:02.584Z,85.11
2022-10-28T00:26:32.102Z,85.09
2022-10-28T00:29:04.071Z,84.90
2022-10-28T00:31:33.074Z,84.91
2022-10-28T00:34:03.811Z,85.01
2022-10-28T00:36:35.592Z,85.05
2022-10-28T00:39:11.180Z,85.11
2022-10-28T00:41:39.893Z,85.25
2022-10-28T00:44:59.052Z,85.32
2022-10-28T00:47:41.037Z,85.29
2022-10-28T00:50:20.246Z,85.23
2022-10-28T00:52:52.281Z,85.07
2022-10-28T00:55:21.960Z,85.04
2022-10-28T00:57:50.815Z,85.09
2022-10-28T01:00:18.953Z,85.13
2022-10-28T01:02:49.239Z,85.24
2022-10-28T01:05:24.883Z,85.26
2022-10-28T01:07:53.788Z,85.33
2022-10-28T01:10:27.163Z,85.41
2022-10-28T01:13:34.743Z,85.46
2022-10-28T01:16:16.474Z,85.51
2022-10-28T01:19:18.274Z,85.63
2022-10-28T01:22:13.984Z,85.50
2022-10-28T01:24:52.932Z,85.52
2022-10-28T01:27:57.268Z,85.62
2022-10-28T01:30:28.869Z,85.68
2022-10-28T01:33:08.065Z,85.75
2022-10-28T01:35:59.217Z,85.97
2022-10-28T01:38:53.318Z,86.06
2022-10-28T01:41:34.400Z,86.22
2022-10-28T01:44:31.301Z,86.08
2022-10-28T01:47:07.536Z,86.02
2022-10-28T01:49:44.588Z,86.01
2022-10-28T01:52:16.178Z,86.00
2022-10-28T01:54:48.145Z,85.97
2022-10-28T01:57:18.457Z,86.00
2022-10-28T01:59:48.841Z,85.99
2022-10-28T02:02:17.691Z,85.90
2022-10-28T02:04:45.602Z,86.01
2022-10-28T02:07:13.831Z,86.00
2022-10-28T02:10:09.521Z,86.04
2022-10-28T02:12:38.362Z,86.00
2022-10-28T02:15:28.302Z,86.07
2022-10-28T02:18:10.992Z,86.07
2022-10-28T02:20:59.015Z,86.08
2022-10-28T02:23:53.019Z,86.04
2022-10-28T02:26:37.492Z,85.99
2022-10-28T02:29:19.327Z,86.04
2022-10-28T02:31:57.276Z,86.05
2022-10-28T02:34:30.089Z,85.94
2022-10-28T02:37:01.735Z,86.01
2022-10-28T02:39:37.517Z,85.95
2022-10-28T02:42:07.076Z,85.97
2022-10-28T02:44:39.297Z,86.13
2022-10-28T02:47:12.541Z,86.07
2022-10-28T02:49:44.097Z,86.10
2022-10-28T02:52:13.294Z,86.15
2022-10-28T02:54:55.655Z,86.21
2022-10-28T02:57:28.072Z,86.35
2022-10-28T03:00:03.960Z,86.29
2022-10-28T03:02:32.464Z,86.38
2022-10-28T03:05:00.212Z,86.44
2022-10-28T03:07:27.969Z,86.41
2022-10-28T03:09:55.697Z,86.34
2022-10-28T03:12:23.349Z,86.32
2022-10-28T03:14:50.665Z,86.35
2022-10-28T03:17:18.318Z,86.35
2022-10-28T03:19:45.943Z,86.36
2022-10-28T03:22:13.738Z,86.36
2022-10-28T03:24:41.251Z,86.36
2022-10-28T03:27:08.905Z,86.36
2022-10-28T03:29:36.756Z,86.38
2022-10-28T03:32:04.975Z,86.44
2022-10-28T03:34:32.611Z,86.41
2022-10-28T03:37:00.051Z,86.41
2022-10-28T03:39:27.594Z,86.40
2022-10-28T03:41:55.374Z,86.42
2022-10-28T03:44:23.172Z,86.36
2022-10-28T03:46:50.963Z,86.37
2022-10-28T03:49:18.789Z,86.31
2022-10-28T03:51:46.841Z,86.32
2022-10-28T03:54:14.558Z,86.36
2022-10-28T03:56:42.298Z,86.33
2022-10-28T03:59:10.288Z,86.39
2022-10-28T04:01:38.237Z,86.42
2022-10-28T04:04:06.467Z,86.47
2022-10-28T04:06:34.230Z,86.58
2022-10-28T04:09:02.163Z,86.60
2022-10-28T04:11:29.628Z,86.79
2022-10-28T04:13:57.341Z,86.82
2022-10-28T04:16:24.747Z,86.98
2022-10-28T04:18:52.381Z,86.96
2022-10-28T04:21:20.173Z,87.01
2022-10-28T04:23:48.018Z,87.06
2022-10-28T04:26:15.611Z,87.10
2022-10-28T04:28:43.179Z,87.10
2022-10-28T04:31:11.709Z,87.18
2022-10-28T04:33:39.545Z,87.28
2022-10-28T04:36:07.951Z,87.26
2022-10-28T04:38:35.543Z,87.18
2022-10-28T04:41:03.572Z,87.17
2022-10-28T04:43:31.273Z,87.20
2022-10-28T04:46:00.845Z,87.18
2022-10-28T04:48:28.586Z,87.17
2022-10-28T04:50:57.409Z,87.17
2022-10-28T04:53:25.290Z,87.10
2022-10-28T04:55:58.452Z,87.10
2022-10-28T04:58:27.056Z,87.05
2022-10-28T05:00:54.530Z,87.04
2022-10-28T05:03:22.319Z,87.04
2022-10-28T05:05:50.211Z,86.98
2022-10-28T05:08:18.328Z,86.98
2022-10-28T05:10:48.146Z,87.01
2022-10-28T05:13:15.766Z,86.97
2022-10-28T05:15:43.476Z,86.98
2022-10-28T05:18:10.988Z,87.15
2022-10-28T05:20:38.709Z,86.91
2022-10-28T05:23:06.996Z,86.94
2022-10-28T05:25:34.617Z,87.05
2022-10-28T05:28:02.738Z,86.83
2022-10-28T05:30:30.384Z,86.76
2022-10-28T05:33:04.243Z,86.69
2022-10-28T05:35:32.087Z,86.71
2022-10-28T05:37:59.856Z,86.68
2022-10-28T05:40:27.524Z,86.67
2022-10-28T05:42:55.258Z,86.71
2022-10-28T05:45:23.488Z,86.74
2022-10-28T05:47:51.240Z,86.76
2022-10-28T05:50:25.950Z,86.98
2022-10-28T05:52:56.450Z,86.86
2022-10-28T05:55:27.859Z,86.89
2022-10-28T05:57:57.271Z,88.24
2022-10-28T06:00:26.376Z,87.99
2022-10-28T06:03:08.295Z,87.21
2022-10-28T06:05:39.803Z,87.90
2022-10-28T06:08:07.567Z,88.04
2022-10-28T06:10:35.235Z,87.33
2022-10-28T06:13:01.657Z,86.83
2022-10-28T06:15:29.323Z,85.15
2022-10-28T06:17:56.842Z,84.34
2022-10-28T06:20:24.551Z,83.16
2022-10-28T06:22:55.178Z,82.06
2022-10-28T06:25:25.453Z,81.51
2022-10-28T06:27:58.161Z,80.31
2022-10-28T06:30:26.860Z,80.45
2022-10-28T06:32:56.058Z,79.62
2022-10-28T06:35:23.995Z,78.69
2022-10-28T06:37:57.049Z,78.19
2022-10-28T06:40:25.562Z,76.88
2022-10-28T06:43:05.038Z,77.04
2022-10-28T06:45:33.444Z,76.96
2022-10-28T06:48:05.592Z,75.35
2022-10-28T06:50:35.753Z,75.21
2022-10-28T06:53:12.064Z,74.77
2022-10-28T06:55:40.233Z,74.26
2022-10-28T06:58:08.062Z,73.31
2022-10-28T07:00:37.266Z,73.29
2022-10-28T07:03:05.255Z,73.34
2022-10-28T07:05:32.782Z,72.97
2022-10-28T07:08:00.963Z,72.03
2022-10-28T07:10:33.136Z,72.00
2022-10-28T07:13:00.808Z,70.89
2022-10-28T07:15:30.287Z,71.05
2022-10-28T07:17:59.698Z,71.20
2022-10-28T07:20:30.371Z,70.44
2022-10-28T07:23:02.807Z,70.69
2022-10-28T07:25:34.990Z,69.98
2022-10-28T07:28:05.131Z,70.01
2022-10-28T07:30:33.721Z,69.93
2022-10-28T07:33:01.132Z,69.78
2022-10-28T07:35:31.507Z,69.26
2022-10-28T07:37:59.578Z,68.52
2022-10-28T07:40:27.721Z,67.76
2022-10-28T07:42:58.908Z,66.88
2022-10-28T07:45:27.089Z,67.94
2022-10-28T07:47:54.409Z,67.03
2022-10-28T07:50:22.149Z,67.80
2022-10-28T07:52:50.208Z,67.58
2022-10-28T07:55:20.463Z,66.82
2022-10-28T07:57:50.497Z,65.86
2022-10-28T08:00:19.431Z,66.20
2022-10-28T08:02:48.940Z,64.52
2022-10-28T08:05:17.455Z,64.54
2022-10-28T08:07:46.487Z,65.15
2022-10-28T08:10:14.229Z,64.16
2022-10-28T08:12:41.653Z,64.09
2022-10-28T08:15:10.067Z,63.50
2022-10-28T08:17:37.648Z,62.46
2022-10-28T08:20:06.064Z,62.90
2022-10-28T08:22:33.734Z,63.19
2022-10-28T08:25:01.623Z,63.38
2022-10-28T08:27:29.321Z,62.74
2022-10-28T08:29:56.724Z,62.29
2022-10-28T08:32:25.309Z,62.26
2022-10-28T08:34:54.530Z,60.35
2022-10-28T08:37:23.189Z,60.27
2022-10-28T08:39:52.141Z,60.81
2022-10-28T08:42:46.068Z,60.32
2022-10-28T08:45:37.336Z,60.93
2022-10-28T08:48:34.491Z,60.51
2022-10-28T08:51:13.308Z,60.14
2022-10-28T08:53:54.641Z,59.53
2022-10-28T08:56:41.687Z,59.33
2022-10-28T08:59:13.734Z,58.87
2022-10-28T09:01:50.000Z,58.58
2022-10-28T09:04:43.721Z,58.24
2022-10-28T09:07:21.353Z,57.79
2022-10-28T09:09:51.280Z,57.63
2022-10-28T09:12:43.074Z,56.77
2022-10-28T09:15:37.030Z,56.64
2022-10-28T09:18:21.845Z,56.50
2022-10-28T09:20:55.628Z,55.61
2022-10-28T09:23:48.979Z,55.07
2022-10-28T09:26:21.140Z,55.02
2022-10-28T09:29:15.209Z,55.28
2022-10-28T09:31:49.871Z,55.42
2022-10-28T09:34:31.725Z,55.11
2022-10-28T09:37:33.422Z,54.91
2022-10-28T09:40:09.131Z,54.05
2022-10-28T09:42:43.125Z,53.96
2022-10-28T09:45:27.305Z,54.24
2022-10-28T09:48:12.183Z,54.15
2022-10-28T09:50:40.409Z,52.98
2022-10-28T09:53:36.039Z,51.38
2022-10-28T09:56:05.734Z,52.55
2022-10-28T09:58:39.116Z,53.00
2022-10-28T10:01:06.796Z,53.18
2022-10-28T10:03:36.476Z,52.38
2022-10-28T10:06:15.598Z,52.59
2022-10-28T10:08:44.651Z,53.25
2022-10-28T10:11:20.056Z,52.67
2022-10-28T10:13:48.296Z,52.52
2022-10-28T10:16:39.544Z,52.21
2022-10-28T10:19:10.707Z,52.29
2022-10-28T10:21:51.471Z,51.70
2022-10-28T10:24:35.324Z,52.22
2022-10-28T10:27:11.390Z,53.17
2022-10-28T10:29:45.828Z,53.14
2022-10-28T10:32:21.598Z,52.12
2022-10-28T10:35:06.247Z,51.54
2022-10-28T10:37:36.272Z,51.80
2022-10-28T10:40:32.918Z,51.28
2022-10-28T10:43:27.167Z,49.12
2022-10-28T10:46:17.293Z,50.40
2022-10-28T10:48:45.259Z,49.46
2022-10-28T10:51:25.832Z,49.04
2022-10-28T10:53:59.392Z,47.92
2022-10-28T10:56:30.565Z,47.77
2022-10-28T10:59:02.787Z,49.36
2022-10-28T11:01:40.660Z,50.21
2022-10-28T11:04:15.691Z,49.83
2022-10-28T11:06:47.980Z,50.21
2022-10-28T11:09:32.792Z,50.51
2022-10-28T11:12:00.899Z,50.11
2022-10-28T11:14:32.462Z,50.58
2022-10-28T11:17:02.341Z,49.70
2022-10-28T11:19:37.803Z,49.59
2022-10-28T11:22:33.479Z,49.72
2022-10-28T11:25:18.916Z,49.62
2022-10-28T11:28:11.781Z,49.97
2022-10-28T11:31:24.003Z,49.82
2022-10-28T11:34:27.038Z,48.87
2022-10-28T11:37:30.580Z,49.42
2022-10-28T11:40:15.661Z,50.10
2022-10-28T11:43:23.125Z,49.99
2022-10-28T11:46:11.070Z,49.98
2022-10-28T11:48:59.237Z,50.24
2022-10-28T11:51:56.649Z,50.03
2022-10-28T11:54:55.071Z,49.85
2022-10-28T11:57:46.110Z,49.22
2022-10-28T12:01:09.120Z,48.79
2022-10-28T12:03:57.995Z,48.04
2022-10-28T12:06:48.714Z,49.15
2022-10-28T12:09:41.762Z,49.17
2022-10-28T12:12:15.599Z,49.39
2022-10-28T12:15:03.419Z,49.65
2022-10-28T12:17:51.755Z,49.30
2022-10-28T12:20:26.993Z,49.79
2022-10-28T12:23:00.001Z,50.36
2022-10-28T12:25:32.559Z,49.56
2022-10-28T12:28:07.623Z,49.83
2022-10-28T12:30:40.003Z,49.80
2022-10-28T12:33:18.765Z,50.41
2022-10-28T12:36:08.343Z,50.51
2022-10-28T12:38:47.131Z,50.62
2022-10-28T12:41:42.805Z,50.80
2022-10-28T12:44:18.536Z,50.32
2022-10-28T12:47:18.143Z,50.55
2022-10-28T12:49:56.590Z,50.67
2022-10-28T12:52:49.486Z,50.46
2022-10-28T12:55:37.373Z,50.37
2022-10-28T12:58:34.697Z,50.67
2022-10-28T13:01:15.981Z,50.65
2022-10-28T13:03:43.519Z,50.98
2022-10-28T13:06:34.293Z,51.08
2022-10-28T13:09:44.911Z,51.02
2022-10-28T13:12:38.449Z,50.94
2022-10-28T13:15:41.722Z,50.71
2022-10-28T13:18:47.846Z,50.74
2022-10-28T13:21:26.885Z,50.71
2022-10-28T13:24:14.481Z,50.70
2022-10-28T13:26:45.322Z,50.81
2022-10-28T13:29:29.596Z,51.19
2022-10-28T13:31:57.282Z,51.15
2022-10-28T13:34:33.090Z,51.39
2022-10-28T13:37:03.563Z,51.55
2022-10-28T13:39:44.184Z,51.62
2022-10-28T13:42:22.031Z,51.07
2022-10-28T13:45:00.623Z,51.58
2022-10-28T13:47:32.313Z,51.87
2022-10-28T13:50:11.954Z,51.86
2022-10-28T13:52:44.658Z,51.98
2022-10-28T13:55:26.393Z,52.12
2022-10-28T13:58:10.209Z,52.21
2022-10-28T14:00:38.154Z,52.28
2022-10-28T14:03:21.358Z,52.45
2022-10-28T14:05:53.248Z,52.63
2022-10-28T14:08:28.975Z,52.54
2022-10-28T14:11:07.263Z,52.70
2022-10-28T14:13:51.952Z,53.05
2022-10-28T14:16:28.664Z,52.92
2022-10-28T14:19:14.527Z,53.00
2022-10-28T14:22:02.660Z,53.22
2022-10-28T14:24:35.866Z,53.60
2022-10-28T14:27:12.077Z,53.71
2022-10-28T14:29:56.840Z,53.73
2022-10-28T14:32:51.334Z,54.00
2022-10-28T14:35:23.646Z,54.08
2022-10-28T14:38:05.494Z,54.34
2022-10-28T14:40:44.148Z,54.57
2022-10-28T14:43:34.477Z,54.88
2022-10-28T14:46:31.544Z,55.18
2022-10-28T14:49:02.866Z,55.57
2022-10-28T14:51:41.374Z,55.94
2022-10-28T14:54:16.056Z,56.08
2022-10-28T14:56:45.179Z,56.29
2022-10-28T14:59:37.926Z,56.57
2022-10-28T15:02:17.151Z,56.79
2022-10-28T15:04:50.358Z,57.04
2022-10-28T15:07:20.434Z,57.31
2022-10-28T15:09:51.382Z,57.78
2022-10-28T15:12:22.581Z,57.94
2022-10-28T15:14:53.391Z,58.49
2022-10-28T15:17:28.201Z,59.02
2022-10-28T15:19:59.245Z,59.37
2022-10-28T15:22:32.535Z,59.76
2022-10-28T15:25:08.167Z,59.93
2022-10-28T15:27:38.904Z,60.19
2022-10-28T15:30:19.819Z,60.54
2022-10-28T15:32:47.516Z,60.80
2022-10-28T15:35:32.570Z,61.10
2022-10-28T15:38:01.977Z,61.53
2022-10-28T15:40:32.566Z,61.88
2022-10-28T15:43:04.449Z,62.18
2022-10-28T15:45:39.730Z,62.67
2022-10-28T15:48:11.394Z,63.09
2022-10-28T15:50:39.489Z,63.37
2022-10-28T15:53:20.505Z,63.66
2022-10-28T15:56:07.151Z,63.60
2022-10-28T15:58:46.391Z,63.68
2022-10-28T16:01:39.168Z,63.96
2022-10-28T16:04:24.558Z,64.26
2022-10-28T16:06:57.644Z,64.74
2022-10-28T16:09:32.106Z,65.11
2022-10-28T16:12:04.573Z,65.27
2022-10-28T16:14:44.855Z,65.43
2022-10-28T16:17:23.355Z,65.84
2022-10-28T16:19:56.389Z,66.17
2022-10-28T16:22:26.845Z,66.48
2022-10-28T16:24:54.762Z,67.07
2022-10-28T16:27:26.182Z,67.11
2022-10-28T16:29:54.014Z,67.41
2022-10-28T16:32:35.420Z,67.52
2022-10-28T16:35:19.139Z,67.78
2022-10-28T16:37:50.730Z,67.81
2022-10-28T16:40:49.530Z,67.99
2022-10-28T16:42:47.454Z,68.09
2022-10-28T16:45:17.936Z,68.19
2022-10-28T16:47:45.916Z,68.30
2022-10-28T16:50:14.052Z,68.46
2022-10-28T16:52:41.497Z,68.65
2022-10-28T16:55:18.942Z,68.92
2022-10-28T16:57:46.456Z,69.09
2022-10-28T17:00:14.451Z,69.54
2022-10-28T17:02:42.787Z,69.78
2022-10-28T17:05:18.664Z,70.18
2022-10-28T17:07:46.367Z,70.78
2022-10-28T17:10:14.668Z,71.15
2022-10-28T17:12:42.358Z,71.44
2022-10-28T17:15:10.753Z,71.79
2022-10-28T17:17:38.333Z,71.84
2022-10-28T17:20:07.204Z,72.55
2022-10-28T17:22:35.165Z,72.50
2022-10-28T17:25:03.021Z,72.59
2022-10-28T17:27:30.623Z,72.74
2022-10-28T17:29:58.188Z,72.92
2022-10-28T17:32:27.822Z,73.03
2022-10-28T17:34:55.343Z,72.99
2022-10-28T17:37:26.470Z,73.08
2022-10-28T17:42:22.306Z,73.56
2022-10-28T17:44:49.965Z,73.73
2022-10-28T17:47:17.788Z,73.97
2022-10-28T17:49:45.391Z,74.21
2022-10-28T17:52:13.567Z,74.26
2022-10-28T17:54:41.102Z,74.40
2022-10-28T17:57:08.798Z,74.70
2022-10-28T17:59:36.607Z,74.83
2022-10-28T18:02:04.776Z,74.87
2022-10-28T18:04:32.710Z,75.13
2022-10-28T18:07:00.615Z,75.27
2022-10-28T18:09:30.405Z,75.34
2022-10-28T18:12:01.496Z,75.52
2022-10-28T18:14:30.163Z,75.69
2022-10-28T18:16:57.873Z,75.94
2022-10-28T18:19:25.501Z,76.04
2022-10-28T18:21:53.034Z,76.23
2022-10-28T18:24:23.412Z,76.46
2022-10-28T18:26:50.086Z,76.52
2022-10-28T18:29:18.135Z,76.64
2022-10-28T18:31:48.536Z,76.69
2022-10-28T18:34:16.825Z,76.79
2022-10-28T18:36:44.618Z,76.88
2022-10-28T18:39:12.220Z,76.88
2022-10-28T18:41:42.015Z,77.02
2022-10-28T18:44:13.734Z,77.00
2022-10-28T18:46:41.658Z,77.04
2022-10-28T18:49:09.610Z,77.27
2022-10-28T18:51:37.957Z,77.48
2022-10-28T18:54:06.288Z,77.70
2022-10-28T18:56:34.110Z,77.82
2022-10-28T18:59:04.221Z,77.85
2022-10-28T19:01:33.099Z,78.08
2022-10-28T19:04:03.663Z,78.07
2022-10-28T19:06:33.496Z,78.14
2022-10-28T19:09:04.416Z,78.19
2022-10-28T19:11:33.595Z,78.23
2022-10-28T19:14:04.807Z,78.30
2022-10-28T19:16:34.790Z,78.38
2022-10-28T19:19:04.850Z,78.37
2022-10-28T19:21:33.850Z,78.39
2022-10-28T19:24:01.878Z,78.46
2022-10-28T19:26:31.348Z,78.52
2022-10-28T19:29:01.704Z,78.56
2022-10-28T19:31:30.306Z,78.61
2022-10-28T19:33:57.776Z,78.69
2022-10-28T19:36:30.284Z,78.69
2022-10-28T19:38:58.813Z,78.74
2022-10-28T19:41:29.048Z,78.71
2022-10-28T19:44:02.409Z,78.71
2022-10-28T19:46:34.556Z,78.82
2022-10-28T19:49:05.249Z,78.93
2022-10-28T19:51:37.096Z,78.96
2022-10-28T19:54:09.442Z,78.98
2022-10-28T19:56:38.707Z,79.10
2022-10-28T19:59:06.818Z,79.20
2022-10-28T20:01:37.876Z,79.33
2022-10-28T20:04:07.546Z,79.52
2022-10-28T20:06:38.523Z,79.55
2022-10-28T20:09:06.783Z,79.67
2022-10-28T20:11:37.411Z,79.81
2022-10-28T20:14:10.760Z,79.92
2022-10-28T20:16:43.308Z,79.94
2022-10-28T20:19:11.659Z,80.08
2022-10-28T20:21:39.779Z,80.23
2022-10-28T20:24:08.201Z,80.25
2022-10-28T20:26:37.973Z,80.27
2022-10-28T20:29:09.403Z,80.37
2022-10-28T20:31:38.383Z,80.37
2022-10-28T20:34:07.565Z,80.51
2022-10-28T20:36:45.272Z,80.59
2022-10-28T20:39:16.338Z,80.65
2022-10-28T20:41:45.972Z,80.81
2022-10-28T20:44:13.971Z,80.81
2022-10-28T20:46:42.087Z,80.82
2022-10-28T20:49:09.985Z,80.87
2022-10-28T20:51:37.691Z,80.83
2022-10-28T20:54:06.201Z,80.88
2022-10-28T20:56:36.768Z,80.92
2022-10-28T20:59:05.168Z,80.95
2022-10-28T21:01:37.379Z,80.93
2022-10-28T21:04:08.962Z,81.01
2022-10-28T21:06:37.962Z,80.96
2022-10-28T21:09:06.088Z,81.01
2022-10-28T21:11:33.941Z,81.12
2022-10-28T21:14:04.708Z,81.08
2022-10-28T21:16:32.484Z,81.13
2022-10-28T21:19:00.410Z,81.23
2022-10-28T21:21:28.949Z,81.26
2022-10-28T21:23:58.286Z,81.36
2022-10-28T21:26:26.726Z,81.29
2022-10-28T21:28:55.813Z,81.35
2022-10-28T21:31:24.126Z,81.33
2022-10-28T21:33:52.516Z,81.25
2022-10-28T21:36:21.932Z,81.32
2022-10-28T21:38:55.296Z,81.30
2022-10-28T21:41:23.904Z,81.39
2022-10-28T21:43:53.401Z,81.43
2022-10-28T21:46:22.819Z,81.48
2022-10-28T21:48:52.446Z,81.57
2022-10-28T21:51:20.145Z,81.70
2022-10-28T21:53:47.918Z,81.67
2022-10-28T21:56:19.568Z,81.64
2022-10-28T21:58:49.969Z,81.73
2022-10-28T22:01:23.487Z,81.82
2022-10-28T22:03:54.128Z,81.85
2022-10-28T22:06:22.368Z,81.94
2022-10-28T22:08:55.125Z,81.91
2022-10-28T22:11:23.749Z,81.96
2022-10-28T22:14:00.672Z,82.06
2022-10-28T22:16:31.113Z,82.10
2022-10-28T22:19:01.519Z,82.13
2022-10-28T22:21:33.087Z,82.14
2022-10-28T22:24:00.928Z,82.22
2022-10-28T22:26:30.328Z,82.26
2022-10-28T22:28:58.061Z,82.36
2022-10-28T22:31:30.491Z,82.37
2022-10-28T22:33:58.678Z,82.37
2022-10-28T22:36:29.060Z,82.35
2022-10-28T22:38:56.763Z,82.41
2022-10-28T22:41:29.920Z,82.33
2022-10-28T22:44:01.813Z,82.40
2022-10-28T22:46:36.078Z,82.39
2022-10-28T22:49:04.048Z,82.42
2022-10-28T22:51:32.171Z,82.43
2022-10-28T22:53:59.889Z,82.44
2022-10-28T22:56:28.070Z,82.42
2022-10-28T22:59:01.230Z,82.49
2022-10-28T23:01:29.905Z,82.54
2022-10-28T23:03:57.854Z,82.54
2022-10-28T23:06:28.032Z,82.48
2022-10-28T23:08:55.669Z,82.61
2022-10-28T23:11:23.446Z,82.70
2022-10-28T23:13:53.328Z,82.82
2022-10-28T23:16:22.763Z,82.83
2022-10-28T23:18:52.341Z,82.82
2022-10-28T23:21:23.834Z,82.86
2022-10-28T23:23:59.705Z,82.93
2022-10-28T23:26:29.290Z,82.97
2022-10-28T23:28:59.111Z,83.09
2022-10-28T23:31:27.637Z,83.12
2022-10-28T23:33:55.692Z,83.14
2022-10-28T23:36:23.417Z,83.13
2022-10-28T23:38:52.008Z,83.25
2022-10-28T23:41:20.476Z,83.31
2022-10-28T23:43:48.998Z,83.36
2022-10-28T23:46:17.093Z,83.31
2022-10-28T23:48:44.637Z,83.29
2022-10-28T23:51:12.534Z,83.30
2022-10-28T23:53:39.924Z,83.27
2022-10-28T23:56:08.255Z,83.24
2022-10-28T23:58:35.932Z,83.29
